Time;durP1;ratioP1;P1;durP2;ratioP2;P2;SDS_P1;SDS_P2;PMS_P1;PMS_P2;Temp;Humidity;BMP_temperature;BMP_pressure;BME280_temperature;BME280_humidity;BME280_pressure;Samples;Min_cycle;Max_cycle;Signal;HPM_P1;HPM_P2
2023/10/14 00:02:13;;;;;;;;;;;18.00;99.90;;;;;;5096420;28;20236;-72
2023/10/14 00:04:41;;;;;;;;;;;18.00;99.90;;;;;;5095338;28;19920;-72
2023/10/14 00:07:09;;;;;;;;;;;18.10;99.90;;;;;;5095241;28;19952;-71
2023/10/14 00:09:43;;;;;;;;;;;18.10;99.90;;;;;;5096535;28;19924;-72
2023/10/14 00:12:13;;;;;;;;;;;18.10;99.90;;;;;;5095325;28;20210;-73
2023/10/14 00:14:42;;;;;;;;;;;18.10;99.90;;;;;;5098253;28;19926;-72
2023/10/14 00:17:12;;;;;;;;;;;18.10;99.90;;;;;;5095199;28;19942;-72
2023/10/14 00:19:38;;;;;;;;;;;18.10;99.90;;;;;;5099709;28;19924;-72
2023/10/14 00:22:07;;;;;;;;;;;18.10;99.90;;;;;;5093546;28;20261;-72
2023/10/14 00:24:37;;;;;;;;;;;18.10;99.90;;;;;;5091505;28;19920;-72
2023/10/14 00:27:07;;;;;;;;;;;18.00;99.90;;;;;;5096429;28;19986;-72
2023/10/14 00:29:34;;;;;;;;;;;18.00;99.90;;;;;;5098999;28;20213;-72
2023/10/14 00:32:03;;;;;;;;;;;18.00;99.90;;;;;;5093165;28;19955;-74
2023/10/14 00:34:29;;;;;;;;;;;18.10;99.90;;;;;;5090804;28;19920;-73
2023/10/14 00:36:57;;;;;;;;;;;18.00;99.90;;;;;;5096631;28;19952;-72
2023/10/14 00:39:27;;;;;;;;;;;18.00;99.90;;;;;;5092748;28;19928;-72
2023/10/14 00:41:54;;;;;;;;;;;18.10;99.90;;;;;;5094639;28;19931;-72
2023/10/14 00:44:24;;;;;;;;;;;18.10;99.90;;;;;;5089589;28;21012;-72
2023/10/14 00:46:51;;;;;;;;;;;18.10;99.90;;;;;;5094413;28;20236;-72
2023/10/14 00:49:18;;;;;;;;;;;18.00;99.90;;;;;;5095682;28;19988;-72
2023/10/14 00:51:49;;;;;;;;;;;18.00;99.90;;;;;;5091338;28;19952;-72
2023/10/14 00:54:26;;;;;;;;;;;18.00;99.90;;;;;;5093552;28;19988;-74
2023/10/14 00:57:01;;;;;;;;;;;18.00;99.90;;;;;;5094046;28;19920;-72
2023/10/14 00:59:28;;;;;;;;;;;17.90;99.90;;;;;;5092232;28;19983;-72
2023/10/14 01:01:58;;;;;;;;;;;17.90;99.90;;;;;;5098534;28;19957;-72
2023/10/14 01:04:32;;;;;;;;;;;17.90;99.90;;;;;;5090836;28;19920;-72
2023/10/14 01:07:04;;;;;;;;;;;18.00;99.90;;;;;;5091344;28;19920;-72
2023/10/14 01:09:41;;;;;;;;;;;18.00;99.90;;;;;;5099915;28;20117;-72
2023/10/14 01:12:19;;;;;;;;;;;18.10;99.90;;;;;;5095845;28;19920;-71
2023/10/14 01:14:46;;;;;;;;;;;18.10;99.90;;;;;;5093945;28;20151;-72
2023/10/14 01:17:14;;;;;;;;;;;18.10;99.90;;;;;;5097699;28;19987;-71
2023/10/14 01:19:41;;;;;;;;;;;18.20;99.90;;;;;;5094410;28;19920;-72
2023/10/14 01:22:12;;;;;;;;;;;18.20;99.90;;;;;;5095353;28;19991;-72
2023/10/14 01:24:41;;;;;;;;;;;18.20;99.90;;;;;;5094835;28;19935;-71
2023/10/14 01:27:08;;;;;;;;;;;18.20;99.90;;;;;;5094251;28;19940;-71
2023/10/14 01:29:39;;;;;;;;;;;18.20;99.90;;;;;;5094007;28;19954;-72
2023/10/14 01:32:23;;;;;;;;;;;18.20;99.90;;;;;;5094195;28;19935;-72
2023/10/14 01:34:55;;;;;;;;;;;18.20;99.90;;;;;;5091621;28;19920;-72
2023/10/14 01:37:26;;;;;;;;;;;18.20;99.90;;;;;;5096251;28;20205;-72
2023/10/14 01:39:57;;;;;;;;;;;18.30;99.90;;;;;;5095820;28;19920;-71
2023/10/14 01:42:24;;;;;;;;;;;18.30;99.90;;;;;;5093869;28;20214;-72
2023/10/14 01:44:53;;;;;;;;;;;18.30;99.90;;;;;;5093533;28;19958;-72
2023/10/14 01:47:20;;;;;;;;;;;18.30;99.90;;;;;;5097756;28;20251;-71
2023/10/14 01:49:47;;;;;;;;;;;18.30;99.90;;;;;;5097479;28;19962;-72
2023/10/14 01:52:19;;;;;;;;;;;18.30;99.90;;;;;;5098967;28;19952;-72
2023/10/14 01:54:47;;;;;;;;;;;18.30;99.90;;;;;;5096930;28;20098;-72
2023/10/14 01:57:17;;;;;;;;;;;18.30;99.90;;;;;;5098419;28;19928;-72
2023/10/14 01:59:45;;;;;;;;;;;18.30;99.90;;;;;;5100318;28;20281;-72
2023/10/14 02:02:19;;;;;;;;;;;18.30;99.90;;;;;;5101582;28;20107;-71
2023/10/14 02:04:46;;;;;;;;;;;18.30;99.90;;;;;;5100413;28;20204;-72
2023/10/14 02:07:18;;;;;;;;;;;18.30;99.90;;;;;;5097876;28;19925;-72
2023/10/14 02:09:44;;;;;;;;;;;18.30;99.90;;;;;;5096674;28;19920;-72
2023/10/14 02:12:12;;;;;;;;;;;18.30;99.90;;;;;;5098142;28;19924;-72
2023/10/14 02:14:40;;;;;;;;;;;18.40;99.90;;;;;;5101089;28;19921;-72
2023/10/14 02:17:10;;;;;;;;;;;18.50;99.90;;;;;;5102690;28;19921;-72
2023/10/14 02:19:37;;;;;;;;;;;18.60;99.90;;;;;;5099191;28;19920;-72
2023/10/14 02:22:09;;;;;;;;;;;18.70;99.90;;;;;;5095884;28;19924;-72
2023/10/14 02:24:36;;;;;;;;;;;18.80;99.90;;;;;;5098048;28;19974;-72
2023/10/14 02:27:10;;;;;;;;;;;18.80;99.90;;;;;;5096081;28;19928;-72
2023/10/14 02:29:44;;;;;;;;;;;18.90;99.90;;;;;;5098308;28;19924;-72
2023/10/14 02:32:12;;;;;;;;;;;19.00;99.90;;;;;;5097464;28;20398;-72
2023/10/14 02:34:39;;;;;;;;;;;19.10;99.90;;;;;;5097427;28;19920;-72
2023/10/14 02:37:07;;;;;;;;;;;19.10;99.90;;;;;;5096557;28;19990;-72
2023/10/14 02:39:34;;;;;;;;;;;19.20;99.90;;;;;;5098675;28;19988;-71
2023/10/14 02:42:08;;;;;;;;;;;19.30;99.90;;;;;;5097526;28;19975;-73
2023/10/14 02:44:44;;;;;;;;;;;19.40;99.90;;;;;;5096628;28;20129;-72
2023/10/14 02:47:12;;;;;;;;;;;19.50;99.90;;;;;;5096889;28;19920;-72
2023/10/14 02:49:40;;;;;;;;;;;19.60;99.90;;;;;;5102884;28;20401;-73
2023/10/14 02:52:11;;;;;;;;;;;19.60;99.90;;;;;;5104590;28;19920;-72
2023/10/14 02:54:40;;;;;;;;;;;19.70;99.90;;;;;;5097483;28;20409;-72
2023/10/14 02:57:12;;;;;;;;;;;19.80;99.90;;;;;;5095844;28;19921;-71
2023/10/14 02:59:43;;;;;;;;;;;19.80;99.90;;;;;;5100915;28;19927;-71
2023/10/14 03:02:14;;;;;;;;;;;19.80;99.90;;;;;;5100045;28;19920;-71
2023/10/14 03:04:48;;;;;;;;;;;19.80;99.90;;;;;;5096489;28;19920;-72
2023/10/14 03:07:21;;;;;;;;;;;19.80;99.90;;;;;;5097021;28;19995;-71
2023/10/14 03:09:48;;;;;;;;;;;19.80;99.90;;;;;;5095597;28;19963;-71
2023/10/14 03:12:18;;;;;;;;;;;19.80;99.90;;;;;;5098492;28;20009;-72
2023/10/14 03:14:48;;;;;;;;;;;19.80;99.90;;;;;;5095738;28;19985;-72
2023/10/14 03:17:17;;;;;;;;;;;19.80;99.90;;;;;;5096715;28;19920;-71
2023/10/14 03:19:45;;;;;;;;;;;19.80;99.90;;;;;;5096412;28;19920;-72
2023/10/14 03:22:16;;;;;;;;;;;19.80;99.90;;;;;;5096480;28;20324;-73
2023/10/14 03:24:43;;;;;;;;;;;19.80;99.90;;;;;;5095828;28;19970;-72
2023/10/14 03:27:10;;;;;;;;;;;19.70;99.90;;;;;;5094965;28;19924;-73
2023/10/14 03:29:37;;;;;;;;;;;19.70;99.90;;;;;;5097337;28;19969;-73
2023/10/14 03:32:03;;;;;;;;;;;19.70;99.90;;;;;;5095351;28;19920;-72
2023/10/14 03:34:30;;;;;;;;;;;19.70;99.90;;;;;;5096694;28;19920;-73
2023/10/14 03:37:01;;;;;;;;;;;19.70;99.90;;;;;;5093260;28;19927;-72
2023/10/14 03:39:40;;;;;;;;;;;19.70;99.90;;;;;;5097821;28;19927;-71
2023/10/14 03:42:11;;;;;;;;;;;19.70;99.90;;;;;;5095105;28;19927;-72
2023/10/14 03:44:41;;;;;;;;;;;19.70;99.90;;;;;;5098845;28;20202;-72
2023/10/14 03:47:14;;;;;;;;;;;19.70;99.90;;;;;;5094015;28;19920;-72
2023/10/14 03:49:42;;;;;;;;;;;19.60;99.90;;;;;;5098376;28;19921;-71
2023/10/14 03:52:12;;;;;;;;;;;19.70;99.90;;;;;;5096364;28;20218;-72
2023/10/14 03:54:42;;;;;;;;;;;19.60;99.90;;;;;;5095850;28;20498;-72
2023/10/14 03:57:14;;;;;;;;;;;19.60;99.90;;;;;;5095294;28;19924;-72
2023/10/14 03:59:42;;;;;;;;;;;19.60;99.90;;;;;;5096075;28;19924;-72
2023/10/14 04:02:11;;;;;;;;;;;19.60;99.90;;;;;;5095393;28;19920;-71
2023/10/14 04:04:42;;;;;;;;;;;19.60;99.90;;;;;;5098753;28;19926;-71
2023/10/14 04:07:15;;;;;;;;;;;19.60;99.90;;;;;;5095456;28;19920;-71
2023/10/14 04:09:51;;;;;;;;;;;19.60;99.90;;;;;;5100124;28;19920;-73
2023/10/14 04:12:32;;;;;;;;;;;19.60;99.90;;;;;;5097740;28;20177;-71
2023/10/14 04:15:06;;;;;;;;;;;19.60;99.90;;;;;;5096525;28;19959;-71
2023/10/14 04:17:33;;;;;;;;;;;19.60;99.90;;;;;;5092890;28;20148;-72
2023/10/14 04:20:15;;;;;;;;;;;19.60;99.90;;;;;;5097165;28;19928;-72
2023/10/14 04:22:42;;;;;;;;;;;19.50;99.90;;;;;;5096786;28;19920;-72
2023/10/14 04:25:19;;;;;;;;;;;19.50;99.90;;;;;;5094542;28;19943;-72
2023/10/14 04:27:56;;;;;;;;;;;19.50;99.90;;;;;;5098603;28;19920;-72
2023/10/14 04:30:32;;;;;;;;;;;19.50;99.90;;;;;;5096446;28;19963;-73
2023/10/14 04:33:16;;;;;;;;;;;19.50;99.90;;;;;;5092773;28;20256;-71
2023/10/14 04:35:57;;;;;;;;;;;19.50;99.90;;;;;;5092466;28;19925;-72
2023/10/14 04:38:28;;;;;;;;;;;19.50;99.90;;;;;;5095680;28;19956;-73
2023/10/14 04:40:58;;;;;;;;;;;19.50;99.90;;;;;;5093139;28;20263;-72
2023/10/14 04:43:49;;;;;;;;;;;19.60;99.90;;;;;;5096768;28;19955;-73
2023/10/14 04:46:19;;;;;;;;;;;19.60;99.90;;;;;;5094047;28;19916;-72
2023/10/14 04:48:51;;;;;;;;;;;19.50;99.90;;;;;;5097174;28;19920;-72
2023/10/14 04:51:19;;;;;;;;;;;19.50;99.90;;;;;;5096497;28;19927;-71
2023/10/14 04:53:46;;;;;;;;;;;19.50;99.90;;;;;;5097005;28;19920;-72
2023/10/14 04:56:21;;;;;;;;;;;19.50;99.90;;;;;;5098195;28;19959;-71
2023/10/14 04:58:52;;;;;;;;;;;19.50;99.90;;;;;;5096537;28;19943;-71
2023/10/14 05:01:19;;;;;;;;;;;19.50;99.90;;;;;;5099674;28;19955;-71
2023/10/14 05:03:46;;;;;;;;;;;19.50;99.90;;;;;;5095847;28;19928;-71
2023/10/14 05:06:15;;;;;;;;;;;19.50;99.90;;;;;;5095639;28;20215;-71
2023/10/14 05:08:45;;;;;;;;;;;19.50;99.90;;;;;;5094979;28;19927;-72
2023/10/14 05:11:13;;;;;;;;;;;19.50;99.90;;;;;;5095207;28;20357;-72
2023/10/14 05:13:42;;;;;;;;;;;19.40;99.90;;;;;;5095508;28;19957;-73
2023/10/14 05:16:16;;;;;;;;;;;19.20;99.90;;;;;;5094186;28;20018;-72
2023/10/14 05:18:58;;;;;;;;;;;18.80;99.90;;;;;;5094739;28;19927;-72
2023/10/14 05:21:35;;;;;;;;;;;18.50;99.90;;;;;;5099690;28;19920;-73
2023/10/14 05:24:03;;;;;;;;;;;18.30;99.90;;;;;;5097704;28;19970;-72
2023/10/14 05:26:35;;;;;;;;;;;18.00;99.90;;;;;;5099922;28;20096;-72
2023/10/14 05:29:11;;;;;;;;;;;17.90;99.90;;;;;;5095766;28;19924;-72
2023/10/14 05:31:37;;;;;;;;;;;17.70;99.90;;;;;;5098688;28;19961;-72
2023/10/14 05:34:04;;;;;;;;;;;17.70;99.90;;;;;;5097835;28;19955;-73
2023/10/14 05:36:32;;;;;;;;;;;17.70;99.90;;;;;;5097883;28;19967;-73
2023/10/14 05:39:02;;;;;;;;;;;17.60;99.90;;;;;;5096627;28;20114;-72
2023/10/14 05:41:29;;;;;;;;;;;17.60;99.90;;;;;;5102880;28;19920;-72
2023/10/14 05:43:55;;;;;;;;;;;17.50;99.90;;;;;;5096572;28;20261;-71
2023/10/14 05:46:23;;;;;;;;;;;17.60;99.90;;;;;;5097616;28;19983;-71
2023/10/14 05:48:53;;;;;;;;;;;17.60;99.90;;;;;;5097226;28;19951;-72
2023/10/14 05:51:19;;;;;;;;;;;17.50;99.90;;;;;;5099621;28;20242;-71
2023/10/14 05:53:46;;;;;;;;;;;17.50;99.90;;;;;;5097661;28;19920;-72
2023/10/14 05:56:14;;;;;;;;;;;17.50;99.90;;;;;;5097735;28;19920;-72
2023/10/14 05:58:40;;;;;;;;;;;17.50;99.90;;;;;;5098412;28;19921;-72
2023/10/14 06:01:08;;;;;;;;;;;17.40;99.90;;;;;;5097757;28;20154;-72
2023/10/14 06:03:36;;;;;;;;;;;17.40;99.90;;;;;;5099805;28;20051;-72
2023/10/14 06:06:03;;;;;;;;;;;17.40;99.90;;;;;;5098777;28;19920;-72
2023/10/14 06:08:32;;;;;;;;;;;17.40;99.90;;;;;;5099651;28;19921;-72
2023/10/14 06:10:59;;;;;;;;;;;17.30;99.90;;;;;;5096079;28;19942;-72
2023/10/14 06:13:27;;;;;;;;;;;17.30;99.90;;;;;;5099427;28;19987;-72
2023/10/14 06:15:54;;;;;;;;;;;17.30;99.90;;;;;;5098128;28;20249;-71
2023/10/14 06:18:20;;;;;;;;;;;17.20;99.90;;;;;;5103173;28;19958;-72
2023/10/14 06:20:49;;;;;;;;;;;17.20;99.90;;;;;;5101258;28;20162;-71
2023/10/14 06:23:16;;;;;;;;;;;17.30;99.90;;;;;;5098609;28;19931;-76
2023/10/14 06:25:43;;;;;;;;;;;17.20;99.90;;;;;;5101627;28;20176;-72
2023/10/14 06:28:10;;;;;;;;;;;17.20;99.90;;;;;;5101045;28;19926;-72
2023/10/14 06:30:37;;;;;;;;;;;17.20;99.90;;;;;;5098265;28;19924;-72
2023/10/14 06:33:07;;;;;;;;;;;17.20;99.90;;;;;;5096586;28;20183;-72
2023/10/14 06:35:33;;;;;;;;;;;17.20;99.90;;;;;;5094783;28;19924;-72
2023/10/14 06:38:04;;;;;;;;;;;17.20;99.90;;;;;;5099052;28;19951;-72
2023/10/14 06:40:35;;;;;;;;;;;17.20;99.90;;;;;;5096828;28;20176;-72
2023/10/14 06:43:06;;;;;;;;;;;17.20;99.90;;;;;;5095792;28;19958;-73
2023/10/14 06:45:33;;;;;;;;;;;17.10;99.90;;;;;;5096453;28;19942;-72
2023/10/14 06:48:02;;;;;;;;;;;17.10;99.90;;;;;;5093843;28;20151;-72
2023/10/14 06:50:30;;;;;;;;;;;17.10;99.90;;;;;;5098152;28;19920;-72
2023/10/14 06:52:58;;;;;;;;;;;17.10;99.90;;;;;;5094893;28;19947;-72
2023/10/14 06:55:26;;;;;;;;;;;17.10;99.90;;;;;;5100252;28;19999;-73
2023/10/14 06:57:54;;;;;;;;;;;17.10;99.90;;;;;;5095006;28;20113;-72
2023/10/14 07:00:29;;;;;;;;;;;17.00;99.90;;;;;;5094825;28;20211;-72
2023/10/14 07:02:57;;;;;;;;;;;17.10;99.90;;;;;;5100209;28;19935;-72
2023/10/14 07:05:23;;;;;;;;;;;17.10;99.90;;;;;;5095532;28;19924;-72
2023/10/14 07:07:50;;;;;;;;;;;17.10;99.90;;;;;;5098211;28;20165;-72
2023/10/14 07:10:17;;;;;;;;;;;17.10;99.90;;;;;;5097872;28;19928;-72
2023/10/14 07:12:46;;;;;;;;;;;17.10;99.90;;;;;;5096425;28;19947;-72
2023/10/14 07:15:13;;;;;;;;;;;17.10;99.90;;;;;;5094317;28;20395;-72
2023/10/14 07:17:43;;;;;;;;;;;17.10;99.90;;;;;;5097842;28;19928;-72
2023/10/14 07:20:11;;;;;;;;;;;17.10;99.90;;;;;;5096987;28;19928;-72
2023/10/14 07:22:38;;;;;;;;;;;17.10;99.90;;;;;;5094646;28;19921;-72
2023/10/14 07:25:05;;;;;;;;;;;17.10;99.90;;;;;;5097292;28;19927;-72
2023/10/14 07:27:35;;;;;;;;;;;17.20;99.90;;;;;;5097817;28;19934;-72
2023/10/14 07:30:13;;;;;;;;;;;17.20;99.90;;;;;;5096879;28;19920;-71
2023/10/14 07:32:41;;;;;;;;;;;17.20;99.90;;;;;;5095913;28;19951;-71
2023/10/14 07:35:11;;;;;;;;;;;17.20;99.90;;;;;;5096940;28;19987;-72
2023/10/14 07:37:38;;;;;;;;;;;17.20;99.90;;;;;;5097602;28;19951;-72
2023/10/14 07:40:11;;;;;;;;;;;17.20;99.90;;;;;;5095284;28;19920;-71
2023/10/14 07:42:38;;;;;;;;;;;17.20;99.90;;;;;;5096929;28;19924;-72
2023/10/14 07:45:10;;;;;;;;;;;17.30;99.90;;;;;;5096334;28;19920;-72
2023/10/14 07:47:37;;;;;;;;;;;17.20;99.90;;;;;;5094260;28;19992;-72
2023/10/14 07:50:09;;;;;;;;;;;17.20;99.90;;;;;;5097346;28;20265;-72
2023/10/14 07:52:36;;;;;;;;;;;17.20;99.90;;;;;;5097446;28;19920;-72
2023/10/14 07:55:03;;;;;;;;;;;17.20;99.90;;;;;;5097360;28;19952;-71
2023/10/14 07:57:30;;;;;;;;;;;17.20;99.90;;;;;;5097229;28;19919;-72
2023/10/14 07:59:59;;;;;;;;;;;17.20;99.90;;;;;;5093893;28;19920;-72
2023/10/14 08:02:27;;;;;;;;;;;17.20;99.90;;;;;;5096803;28;20130;-72
2023/10/14 08:04:54;;;;;;;;;;;17.30;99.90;;;;;;5093541;28;19973;-72
2023/10/14 08:07:21;;;;;;;;;;;17.30;99.90;;;;;;5099622;28;20192;-71
2023/10/14 08:09:48;;;;;;;;;;;17.40;99.90;;;;;;5100834;28;20282;-72
2023/10/14 08:12:15;;;;;;;;;;;17.50;99.90;;;;;;5097544;28;19928;-72
2023/10/14 08:14:44;;;;;;;;;;;17.40;99.90;;;;;;5098341;28;19920;-72
2023/10/14 08:17:12;;;;;;;;;;;17.50;99.90;;;;;;5096559;28;19960;-72
2023/10/14 08:19:40;;;;;;;;;;;17.50;99.90;;;;;;5095928;28;19924;-72
2023/10/14 08:22:08;;;;;;;;;;;17.60;99.90;;;;;;5094872;28;20091;-72
2023/10/14 08:24:34;;;;;;;;;;;17.70;99.90;;;;;;5096033;28;19926;-72
2023/10/14 08:27:01;;;;;;;;;;;17.80;99.90;;;;;;5093533;28;19943;-73
2023/10/14 08:29:32;;;;;;;;;;;17.80;99.90;;;;;;5096878;28;20213;-71
2023/10/14 08:31:59;;;;;;;;;;;17.60;99.90;;;;;;5090719;28;19921;-75
2023/10/14 08:34:25;;;;;;;;;;;17.40;99.90;;;;;;5094833;28;19927;-73
2023/10/14 08:36:56;;;;;;;;;;;17.20;99.90;;;;;;5095527;28;20459;-71
2023/10/14 08:39:23;;;;;;;;;;;17.10;99.90;;;;;;5093324;28;19920;-71
2023/10/14 08:41:52;;;;;;;;;;;17.00;99.90;;;;;;5096113;28;19962;-71
2023/10/14 08:44:22;;;;;;;;;;;16.90;99.90;;;;;;5094515;28;19920;-71
2023/10/14 08:46:49;;;;;;;;;;;16.90;99.90;;;;;;5095600;28;19924;-71
2023/10/14 08:49:23;;;;;;;;;;;16.80;99.90;;;;;;5097999;28;19920;-71
2023/10/14 08:51:50;;;;;;;;;;;16.90;99.90;;;;;;5099024;28;19962;-71
2023/10/14 08:54:19;;;;;;;;;;;16.80;99.90;;;;;;5095944;28;20244;-72
2023/10/14 08:56:45;;;;;;;;;;;16.80;99.90;;;;;;5093589;28;19935;-70
2023/10/14 08:59:12;;;;;;;;;;;16.70;99.90;;;;;;5101526;28;19963;-71
2023/10/14 09:01:40;;;;;;;;;;;16.70;99.90;;;;;;5093873;28;20300;-71
2023/10/14 09:04:09;;;;;;;;;;;16.70;99.90;;;;;;5098050;28;19927;-72
2023/10/14 09:06:36;;;;;;;;;;;16.50;99.90;;;;;;5096452;28;19920;-71
2023/10/14 09:09:02;;;;;;;;;;;16.40;99.90;;;;;;5099250;28;19921;-71
2023/10/14 09:11:33;;;;;;;;;;;16.40;99.90;;;;;;5095355;28;19926;-71
2023/10/14 09:14:03;;;;;;;;;;;16.50;99.90;;;;;;5093640;28;19920;-72
2023/10/14 09:16:32;;;;;;;;;;;16.40;99.90;;;;;;5095766;28;20003;-71
2023/10/14 09:18:59;;;;;;;;;;;16.30;99.90;;;;;;5093202;28;20206;-71
2023/10/14 09:21:25;;;;;;;;;;;16.30;99.90;;;;;;5096085;28;19920;-71
2023/10/14 09:23:52;;;;;;;;;;;16.10;99.90;;;;;;5096225;28;21048;-71
2023/10/14 09:26:19;;;;;;;;;;;16.00;99.90;;;;;;5096963;28;19920;-71
2023/10/14 09:28:48;;;;;;;;;;;15.90;99.90;;;;;;5094597;28;19987;-71
2023/10/14 09:31:14;;;;;;;;;;;15.80;99.90;;;;;;5095103;28;19963;-72
2023/10/14 09:33:42;;;;;;;;;;;15.60;99.90;;;;;;5094951;28;19983;-70
2023/10/14 09:36:14;;;;;;;;;;;15.50;99.90;;;;;;5093583;28;20228;-71
2023/10/14 09:38:41;;;;;;;;;;;15.40;99.90;;;;;;5097256;28;19927;-72
2023/10/14 09:41:10;;;;;;;;;;;15.20;99.90;;;;;;5100705;28;19980;-71
2023/10/14 09:43:39;;;;;;;;;;;15.10;99.90;;;;;;5097777;28;19924;-71
2023/10/14 09:46:10;;;;;;;;;;;15.10;99.90;;;;;;5094921;28;19926;-72
2023/10/14 09:48:38;;;;;;;;;;;15.10;99.90;;;;;;5096895;28;20256;-72
2023/10/14 09:51:05;;;;;;;;;;;15.00;99.90;;;;;;5097851;28;20198;-71
2023/10/14 09:53:32;;;;;;;;;;;15.00;99.90;;;;;;5100496;28;19987;-72
2023/10/14 09:56:04;;;;;;;;;;;14.90;99.90;;;;;;5093268;28;19920;-72
2023/10/14 09:58:34;;;;;;;;;;;15.00;99.90;;;;;;5097184;28;19928;-72
2023/10/14 10:01:01;;;;;;;;;;;15.00;99.90;;;;;;5094316;28;20089;-73
2023/10/14 10:03:32;;;;;;;;;;;15.00;99.90;;;;;;5100378;28;19987;-72
2023/10/14 10:06:07;;;;;;;;;;;15.10;99.90;;;;;;5092715;28;19927;-72
2023/10/14 10:08:44;;;;;;;;;;;15.10;99.90;;;;;;5099190;28;19927;-72
2023/10/14 10:11:11;;;;;;;;;;;15.10;99.90;;;;;;5102628;28;19983;-71
2023/10/14 10:13:39;;;;;;;;;;;15.00;99.90;;;;;;5102865;28;19920;-72
2023/10/14 10:16:06;;;;;;;;;;;15.00;99.90;;;;;;5100010;28;20373;-72
2023/10/14 10:18:57;;;;;;;;;;;15.00;99.90;;;;;;5099298;28;19920;-71
2023/10/14 10:21:25;;;;;;;;;;;15.00;99.90;;;;;;5097081;28;19924;-72
2023/10/14 10:23:56;;;;;;;;;;;14.90;99.90;;;;;;5099433;28;20173;-73
2023/10/14 10:26:23;;;;;;;;;;;14.90;99.90;;;;;;5096295;28;19991;-72
2023/10/14 10:28:50;;;;;;;;;;;14.90;99.90;;;;;;5096771;28;19970;-71
2023/10/14 10:31:21;;;;;;;;;;;14.90;99.90;;;;;;5102222;28;19920;-71
2023/10/14 10:34:00;;;;;;;;;;;14.90;99.90;;;;;;5101299;28;19920;-72
2023/10/14 10:36:28;;;;;;;;;;;14.90;99.90;;;;;;5096246;28;19974;-71
2023/10/14 10:38:55;;;;;;;;;;;15.00;99.90;;;;;;5095466;28;19952;-71
2023/10/14 10:41:25;;;;;;;;;;;15.00;99.90;;;;;;5098799;28;19963;-72
2023/10/14 10:43:52;;;;;;;;;;;15.10;99.90;;;;;;5101914;28;19920;-72
2023/10/14 10:46:31;;;;;;;;;;;15.10;99.90;;;;;;5096247;28;19956;-72
2023/10/14 10:48:59;;;;;;;;;;;15.10;99.90;;;;;;5096356;28;19988;-72
2023/10/14 10:51:29;;;;;;;;;;;15.20;99.90;;;;;;5100332;28;19966;-72
2023/10/14 10:53:56;;;;;;;;;;;15.20;99.90;;;;;;5098561;28;19924;-71
2023/10/14 10:56:23;;;;;;;;;;;15.20;99.90;;;;;;5094990;28;19920;-71
2023/10/14 10:58:49;;;;;;;;;;;15.10;99.90;;;;;;5095349;28;19919;-71
2023/10/14 11:01:17;;;;;;;;;;;15.10;99.90;;;;;;5097425;28;19967;-71
2023/10/14 11:03:45;;;;;;;;;;;15.10;99.90;;;;;;5096973;28;19966;-72
2023/10/14 11:06:13;;;;;;;;;;;15.10;99.90;;;;;;5100590;28;19920;-72
2023/10/14 11:08:40;;;;;;;;;;;15.20;99.90;;;;;;5098935;28;19928;-73
2023/10/14 11:11:07;;;;;;;;;;;15.20;99.90;;;;;;5096171;28;19970;-72
2023/10/14 11:13:36;;;;;;;;;;;15.20;99.90;;;;;;5097774;28;19958;-73
2023/10/14 11:16:11;;;;;;;;;;;15.20;99.90;;;;;;5098397;28;19927;-72
2023/10/14 11:18:45;;;;;;;;;;;15.30;99.90;;;;;;5097184;28;19920;-72
2023/10/14 11:21:14;;;;;;;;;;;15.30;99.90;;;;;;5096437;28;19959;-72
2023/10/14 11:23:42;;;;;;;;;;;15.30;99.90;;;;;;5101431;28;20165;-72
2023/10/14 11:26:12;;;;;;;;;;;15.40;99.90;;;;;;5099195;28;19958;-72
2023/10/14 11:28:39;;;;;;;;;;;15.40;99.90;;;;;;5096911;28;19947;-71
2023/10/14 11:31:08;;;;;;;;;;;15.40;99.90;;;;;;5097756;28;19921;-71
2023/10/14 11:33:35;;;;;;;;;;;15.40;99.90;;;;;;5097611;28;19924;-72
2023/10/14 11:36:03;;;;;;;;;;;15.40;99.90;;;;;;5095010;28;20173;-72
2023/10/14 11:38:32;;;;;;;;;;;15.40;99.90;;;;;;5097381;28;20121;-72
2023/10/14 11:41:02;;;;;;;;;;;15.40;99.90;;;;;;5092822;28;19987;-75
2023/10/14 11:43:30;;;;;;;;;;;15.50;99.90;;;;;;5102129;28;20232;-72
2023/10/14 11:45:57;;;;;;;;;;;15.60;99.90;;;;;;5097052;28;19925;-72
2023/10/14 11:48:23;;;;;;;;;;;15.60;99.90;;;;;;5097423;28;19951;-73
2023/10/14 11:50:53;;;;;;;;;;;15.60;99.90;;;;;;5095209;28;19956;-72
2023/10/14 11:53:28;;;;;;;;;;;15.60;99.90;;;;;;5101012;28;20015;-72
2023/10/14 11:56:00;;;;;;;;;;;15.60;99.90;;;;;;5098749;28;19927;-72
2023/10/14 11:58:27;;;;;;;;;;;15.60;99.90;;;;;;5095521;28;19927;-73
2023/10/14 12:00:55;;;;;;;;;;;15.50;99.90;;;;;;5096265;28;19960;-70
2023/10/14 12:03:25;;;;;;;;;;;15.50;99.90;;;;;;5092503;28;20110;-70
2023/10/14 12:05:51;;;;;;;;;;;15.60;99.90;;;;;;5094781;28;19951;-70
2023/10/14 12:08:22;;;;;;;;;;;15.60;99.90;;;;;;5093629;28;19994;-70
2023/10/14 12:10:49;;;;;;;;;;;15.70;99.90;;;;;;5094735;28;19961;-70
2023/10/14 12:13:18;;;;;;;;;;;15.70;99.90;;;;;;5095905;28;20178;-72
2023/10/14 12:15:46;;;;;;;;;;;15.70;99.90;;;;;;5097747;28;19921;-70
2023/10/14 12:18:13;;;;;;;;;;;15.80;99.90;;;;;;5098267;28;19987;-72
2023/10/14 12:20:40;;;;;;;;;;;15.70;99.90;;;;;;5096105;28;19927;-72
2023/10/14 12:23:07;;;;;;;;;;;15.60;99.90;;;;;;5095313;28;19942;-72
2023/10/14 12:25:34;;;;;;;;;;;15.50;99.90;;;;;;5098812;28;20278;-72
2023/10/14 12:28:00;;;;;;;;;;;15.50;99.90;;;;;;5094162;28;19983;-71
2023/10/14 12:30:39;;;;;;;;;;;15.40;99.90;;;;;;5096442;28;19992;-72
2023/10/14 12:33:07;;;;;;;;;;;15.40;99.90;;;;;;5097944;28;19920;-72
2023/10/14 12:35:39;;;;;;;;;;;15.30;99.90;;;;;;5098702;28;20117;-72
2023/10/14 12:38:11;;;;;;;;;;;15.30;99.90;;;;;;5099750;28;19983;-72
2023/10/14 12:40:37;;;;;;;;;;;15.20;99.90;;;;;;5098964;28;19990;-72
2023/10/14 12:43:05;;;;;;;;;;;15.10;99.90;;;;;;5099186;28;19947;-71
2023/10/14 12:45:34;;;;;;;;;;;15.00;99.90;;;;;;5099618;28;19948;-72
2023/10/14 12:48:09;;;;;;;;;;;14.80;99.90;;;;;;5096741;28;19920;-72
2023/10/14 12:50:40;;;;;;;;;;;14.70;99.90;;;;;;5096570;28;19959;-72
2023/10/14 12:53:08;;;;;;;;;;;14.60;99.90;;;;;;5096927;28;19920;-71
2023/10/14 12:55:35;;;;;;;;;;;14.50;99.90;;;;;;5095917;28;20141;-71
2023/10/14 12:58:02;;;;;;;;;;;14.50;99.90;;;;;;5098095;28;19920;-72
2023/10/14 13:00:30;;;;;;;;;;;14.40;99.90;;;;;;5097882;28;19920;-75
2023/10/14 13:02:58;;;;;;;;;;;14.30;99.90;;;;;;5093240;28;19928;-73
2023/10/14 13:05:25;;;;;;;;;;;14.30;99.90;;;;;;5093727;28;19926;-73
2023/10/14 13:07:52;;;;;;;;;;;14.10;99.90;;;;;;5093969;28;19920;-73
2023/10/14 13:10:20;;;;;;;;;;;14.20;99.90;;;;;;5099907;28;19920;-73
2023/10/14 13:12:50;;;;;;;;;;;14.20;99.90;;;;;;5094922;28;20229;-75
2023/10/14 13:18:06;;;;;;;;;;;14.10;99.90;;;;;;5092010;28;19951;-74
2023/10/14 13:20:34;;;;;;;;;;;14.10;99.90;;;;;;5101490;28;19920;-73
2023/10/14 13:23:04;;;;;;;;;;;14.20;99.90;;;;;;5097187;28;19920;-72
2023/10/14 13:25:32;;;;;;;;;;;14.20;99.90;;;;;;5099266;28;19927;-71
2023/10/14 13:28:01;;;;;;;;;;;14.20;99.90;;;;;;5094858;28;19920;-73
2023/10/14 13:30:29;;;;;;;;;;;14.20;99.90;;;;;;5095764;28;19927;-73
2023/10/14 13:32:56;;;;;;;;;;;14.30;99.90;;;;;;5098675;28;19963;-76
2023/10/14 13:35:24;;;;;;;;;;;14.30;99.90;;;;;;5091791;28;19920;-72
2023/10/14 13:37:51;;;;;;;;;;;14.20;99.90;;;;;;5094399;28;19928;-73
2023/10/14 13:40:21;;;;;;;;;;;14.20;99.90;;;;;;5095660;28;19951;-73
2023/10/14 13:42:49;;;;;;;;;;;14.20;99.90;;;;;;5101211;28;20280;-73
2023/10/14 13:45:16;;;;;;;;;;;14.20;99.90;;;;;;5101778;28;19955;-73
2023/10/14 13:47:43;;;;;;;;;;;14.20;99.90;;;;;;5098603;28;20087;-73
2023/10/14 13:50:11;;;;;;;;;;;14.10;99.90;;;;;;5096605;28;19920;-72
2023/10/14 13:52:39;;;;;;;;;;;14.10;99.90;;;;;;5101841;28;19920;-72
2023/10/14 13:55:07;;;;;;;;;;;14.20;99.90;;;;;;5097117;28;19927;-73
2023/10/14 13:57:33;;;;;;;;;;;14.20;99.90;;;;;;5099426;28;19920;-73
2023/10/14 14:00:07;;;;;;;;;;;14.20;99.90;;;;;;5098553;28;19971;-73
2023/10/14 14:02:34;;;;;;;;;;;14.10;99.90;;;;;;5102965;28;19958;-73
2023/10/14 14:05:04;;;;;;;;;;;14.00;99.90;;;;;;5096125;28;19956;-75
2023/10/14 14:07:31;;;;;;;;;;;14.00;99.90;;;;;;5099761;28;19926;-72
2023/10/14 14:09:59;;;;;;;;;;;14.00;99.90;;;;;;5099258;28;20214;-73
2023/10/14 14:12:27;;;;;;;;;;;13.90;99.90;;;;;;5102509;28;19962;-72
2023/10/14 14:14:54;;;;;;;;;;;13.90;99.90;;;;;;5095799;28;19920;-73
2023/10/14 14:17:24;;;;;;;;;;;13.90;99.90;;;;;;5098946;28;19956;-72
2023/10/14 14:19:50;;;;;;;;;;;13.90;99.90;;;;;;5097643;28;19920;-71
2023/10/14 14:22:18;;;;;;;;;;;13.90;99.90;;;;;;5102456;28;20261;-72
2023/10/14 14:24:45;;;;;;;;;;;13.90;99.90;;;;;;5098624;28;19966;-72
2023/10/14 14:27:13;;;;;;;;;;;13.90;99.90;;;;;;5099173;28;19962;-72
2023/10/14 14:29:42;;;;;;;;;;;13.90;99.90;;;;;;5098901;28;19984;-73
2023/10/14 14:32:09;;;;;;;;;;;13.90;99.90;;;;;;5099561;28;19991;-72